createdAt,value
2017-12-08T00:00:19.705Z,99.99
2017-12-08T00:00:45.825Z,99.99
2017-12-08T00:01:11.938Z,99.99
2017-12-08T00:01:38.056Z,99.99
2017-12-08T00:02:04.177Z,99.99
2017-12-08T00:02:30.296Z,99.99
2017-12-08T00:02:56.405Z,99.99
2017-12-08T00:03:22.531Z,99.99
2017-12-08T00:03:48.641Z,99.99
2017-12-08T00:04:14.758Z,99.99
2017-12-08T00:04:40.874Z,99.99
2017-12-08T00:05:06.986Z,99.99
2017-12-08T00:05:33.102Z,99.99
2017-12-08T00:05:59.243Z,99.99
2017-12-08T00:06:25.360Z,99.99
2017-12-08T00:06:51.474Z,99.99
2017-12-08T00:07:17.591Z,99.99
2017-12-08T00:07:43.701Z,99.99
2017-12-08T00:08:09.819Z,99.99
2017-12-08T00:08:35.931Z,99.99
2017-12-08T00:09:02.044Z,99.99
2017-12-08T00:09:28.154Z,99.99
2017-12-08T00:09:54.270Z,99.99
2017-12-08T00:10:20.396Z,99.99
2017-12-08T00:10:46.505Z,99.99
2017-12-08T00:11:12.626Z,99.99
2017-12-08T00:11:38.744Z,99.99
2017-12-08T00:12:04.882Z,99.99
2017-12-08T00:12:30.998Z,99.99
2017-12-08T00:12:57.116Z,99.99
2017-12-08T00:13:23.252Z,99.99
2017-12-08T00:13:49.366Z,99.99
2017-12-08T00:14:15.485Z,99.99
2017-12-08T00:14:41.604Z,99.99
2017-12-08T00:15:07.721Z,99.99
2017-12-08T00:15:33.832Z,99.99
2017-12-08T00:15:59.945Z,99.99
2017-12-08T00:16:26.064Z,99.99
2017-12-08T00:16:52.176Z,99.99
2017-12-08T00:17:18.315Z,99.99
2017-12-08T00:17:44.428Z,99.99
2017-12-08T00:18:10.544Z,99.99
2017-12-08T00:18:36.656Z,99.99
2017-12-08T00:19:02.770Z,99.99
2017-12-08T00:19:28.882Z,99.99
2017-12-08T00:19:55.002Z,99.99
2017-12-08T00:20:21.114Z,99.99
2017-12-08T00:20:47.234Z,99.99
2017-12-08T00:21:13.371Z,99.99
2017-12-08T00:21:39.499Z,99.99
2017-12-08T00:22:05.619Z,99.99
2017-12-08T00:22:31.734Z,99.99
2017-12-08T00:22:57.850Z,99.99
2017-12-08T00:23:23.962Z,99.99
2017-12-08T00:23:50.087Z,99.99
2017-12-08T00:24:16.194Z,99.99
2017-12-08T00:24:42.307Z,99.99
2017-12-08T00:25:08.427Z,99.99
2017-12-08T00:25:34.544Z,99.99
2017-12-08T00:26:00.659Z,99.99
2017-12-08T00:26:26.789Z,99.99
2017-12-08T00:26:52.910Z,99.99
2017-12-08T00:27:19.027Z,99.99
2017-12-08T00:27:45.139Z,99.99
2017-12-08T00:28:11.258Z,99.99
2017-12-08T00:28:37.371Z,99.99
2017-12-08T00:29:03.486Z,99.99
2017-12-08T00:29:29.603Z,99.99
2017-12-08T00:29:55.713Z,99.99
2017-12-08T00:30:21.832Z,99.99
2017-12-08T00:30:47.951Z,99.99
2017-12-08T00:31:14.065Z,99.99
2017-12-08T00:31:40.177Z,99.99
2017-12-08T00:32:06.295Z,99.99
2017-12-08T00:32:32.406Z,99.99
2017-12-08T00:32:58.518Z,99.99
2017-12-08T00:33:24.654Z,99.99
2017-12-08T00:33:50.772Z,99.99
2017-12-08T00:34:16.896Z,99.99
2017-12-08T00:34:43.010Z,99.99
2017-12-08T00:35:09.124Z,99.99
2017-12-08T00:35:35.242Z,99.88
2017-12-08T00:36:01.358Z,99.99
2017-12-08T00:36:27.472Z,99.99
2017-12-08T00:36:53.589Z,99.99
2017-12-08T00:37:19.700Z,99.99
2017-12-08T00:37:45.818Z,99.99
2017-12-08T00:38:11.931Z,99.97
2017-12-08T00:38:38.046Z,99.88
2017-12-08T00:39:04.165Z,99.88
2017-12-08T00:39:30.272Z,99.99
2017-12-08T00:39:56.390Z,99.99
2017-12-08T00:40:22.510Z,99.99
2017-12-08T00:40:48.646Z,99.99
2017-12-08T00:41:14.759Z,99.69
2017-12-08T00:41:40.880Z,99.99
2017-12-08T00:42:06.990Z,99.99
2017-12-08T00:42:33.128Z,99.97
2017-12-08T00:42:59.244Z,99.88
2017-12-08T00:43:25.357Z,99.99
2017-12-08T00:43:51.467Z,99.99
2017-12-08T00:44:17.584Z,99.59
2017-12-08T00:44:43.704Z,99.78
2017-12-08T00:45:09.818Z,99.5
2017-12-08T00:45:35.930Z,99.3
2017-12-08T00:46:02.052Z,99.88
2017-12-08T00:46:28.168Z,99.99
2017-12-08T00:46:54.280Z,99.99
2017-12-08T00:47:20.400Z,99.99
2017-12-08T00:47:46.510Z,99.88
2017-12-08T00:48:12.627Z,99.99
2017-12-08T00:48:38.746Z,99.99
2017-12-08T00:49:04.858Z,99.99
2017-12-08T00:49:30.976Z,99.99
2017-12-08T00:49:57.093Z,99.97
2017-12-08T00:50:23.226Z,99.69
2017-12-08T00:50:49.335Z,99.59
2017-12-08T00:51:15.458Z,99.88
2017-12-08T00:51:41.575Z,99.99
2017-12-08T00:52:07.684Z,99.97
2017-12-08T00:52:33.804Z,99.99
2017-12-08T00:52:59.915Z,99.99
2017-12-08T00:53:26.039Z,99.97
2017-12-08T00:53:52.152Z,99.88
2017-12-08T00:54:18.271Z,99.21
2017-12-08T00:54:44.400Z,99.5
2017-12-08T00:55:10.514Z,99.88
2017-12-08T00:55:36.634Z,99.69
2017-12-08T00:56:02.747Z,99.99
2017-12-08T00:56:28.880Z,99.59
2017-12-08T00:56:54.991Z,99.99
2017-12-08T00:57:21.114Z,99.99
2017-12-08T00:57:47.228Z,99.88
2017-12-08T00:58:13.343Z,99.59
2017-12-08T00:58:39.470Z,99.69
2017-12-08T00:59:05.596Z,99.69
2017-12-08T00:59:31.712Z,99.5
2017-12-08T00:59:57.824Z,99.59
2017-12-08T01:00:23.944Z,99.3
2017-12-08T01:00:50.052Z,99.4
2017-12-08T01:01:16.171Z,99.21
2017-12-08T01:01:42.281Z,99.21
2017-12-08T01:02:08.401Z,99.59
2017-12-08T01:02:34.516Z,99.59
2017-12-08T01:03:00.636Z,99.59
2017-12-08T01:03:26.748Z,99.54
2017-12-08T01:03:52.867Z,99.3
2017-12-08T01:04:18.994Z,99.44
2017-12-08T01:04:45.115Z,99.16
2017-12-08T01:05:11.225Z,99.54
2017-12-08T01:05:37.342Z,99.54
2017-12-08T01:06:03.461Z,99.07
2017-12-08T01:06:29.593Z,99.54
2017-12-08T01:06:55.713Z,99.3
2017-12-08T01:07:21.830Z,99.54
2017-12-08T01:07:47.948Z,99.64
2017-12-08T01:08:14.057Z,99.54
2017-12-08T01:08:40.172Z,99.26
2017-12-08T01:09:06.286Z,99.44
2017-12-08T01:09:32.405Z,99.35
2017-12-08T01:09:58.540Z,99.59
2017-12-08T01:10:24.652Z,99.44
2017-12-08T01:10:50.769Z,99.26
2017-12-08T01:11:16.885Z,99.83
2017-12-08T01:11:42.996Z,99.83
2017-12-08T01:12:09.130Z,99.73
2017-12-08T01:12:35.250Z,99.44
2017-12-08T01:13:01.380Z,99.64
2017-12-08T01:13:27.496Z,99.54
2017-12-08T01:13:53.616Z,99.26
2017-12-08T01:14:19.729Z,99.44
2017-12-08T01:14:45.864Z,99.5
2017-12-08T01:15:11.999Z,99.59
2017-12-08T01:15:38.124Z,99.07
2017-12-08T01:16:04.231Z,99.07
2017-12-08T01:16:30.348Z,99.16
2017-12-08T01:16:56.462Z,99.07
2017-12-08T01:17:22.582Z,98.97
2017-12-08T01:17:48.699Z,99.44
2017-12-08T01:18:14.821Z,99.26
2017-12-08T01:18:40.936Z,99.44
2017-12-08T01:19:07.051Z,98.97
2017-12-08T01:19:33.165Z,98.97
2017-12-08T01:19:59.278Z,99.16
2017-12-08T01:20:25.396Z,99.16
2017-12-08T01:20:51.531Z,99.16
2017-12-08T01:21:17.664Z,99.44
2017-12-08T01:21:43.780Z,99.54
2017-12-08T01:22:09.897Z,99.54
2017-12-08T01:22:36.006Z,99.64
2017-12-08T01:23:02.128Z,99.35
2017-12-08T01:23:28.244Z,99.54
2017-12-08T01:23:54.380Z,99.54
2017-12-08T01:24:20.498Z,98.79
2017-12-08T01:24:46.615Z,99.07
2017-12-08T01:25:12.724Z,99.44
2017-12-08T01:25:38.839Z,99.54
2017-12-08T01:26:04.952Z,99.54
2017-12-08T01:26:31.069Z,99.26
2017-12-08T01:26:57.182Z,99.35
2017-12-08T01:27:23.295Z,99.64
2017-12-08T01:27:49.417Z,99.54
2017-12-08T01:28:15.526Z,99.54
2017-12-08T01:28:41.646Z,99.54
2017-12-08T01:29:07.759Z,99.44
2017-12-08T01:29:33.874Z,99.16
2017-12-08T01:29:59.994Z,99.35
2017-12-08T01:30:26.106Z,99.07
2017-12-08T01:30:52.224Z,98.88
2017-12-08T01:31:18.342Z,99.07
2017-12-08T01:31:44.473Z,98.97
2017-12-08T01:32:10.585Z,99.16
2017-12-08T01:32:36.717Z,98.97
2017-12-08T01:33:02.838Z,98.97
2017-12-08T01:33:28.948Z,98.97
2017-12-08T01:33:55.067Z,98.88
2017-12-08T01:34:21.183Z,98.97
2017-12-08T01:34:47.294Z,99.07
2017-12-08T01:35:13.414Z,99.26
2017-12-08T01:35:39.525Z,99.35
2017-12-08T01:36:05.643Z,99.26
2017-12-08T01:36:31.760Z,98.69
2017-12-08T01:36:57.870Z,98.79
2017-12-08T01:37:24.008Z,99.54
2017-12-08T01:37:50.123Z,99.44
2017-12-08T01:38:16.234Z,99.35
2017-12-08T01:38:42.353Z,99.64
2017-12-08T01:39:08.494Z,99.16
2017-12-08T01:39:34.604Z,99.54
2017-12-08T01:40:00.719Z,99.54
2017-12-08T01:40:26.832Z,99.54
2017-12-08T01:40:52.952Z,99.54
2017-12-08T01:41:19.086Z,99.16
2017-12-08T01:41:45.202Z,99.26
2017-12-08T01:42:11.339Z,98.69
2017-12-08T01:42:37.457Z,98.97
2017-12-08T01:43:03.573Z,99.44
2017-12-08T01:43:29.680Z,98.97
2017-12-08T01:43:55.799Z,99.35
2017-12-08T01:44:21.918Z,98.97
2017-12-08T01:44:48.056Z,98.97
2017-12-08T01:45:14.168Z,99.35
2017-12-08T01:45:40.284Z,99.16
2017-12-08T01:46:06.416Z,99.44
2017-12-08T01:46:32.528Z,98.69
2017-12-08T01:46:58.643Z,98.69
2017-12-08T01:47:24.761Z,98.88
2017-12-08T01:47:50.880Z,98.97
2017-12-08T01:48:16.994Z,98.88
2017-12-08T01:48:43.107Z,99.26
2017-12-08T01:49:09.245Z,99.35
2017-12-08T01:49:35.355Z,99.64
2017-12-08T01:50:01.473Z,99.26
2017-12-08T01:50:27.589Z,98.88
2017-12-08T01:50:53.700Z,98.97
2017-12-08T01:51:19.818Z,99.07
2017-12-08T01:51:45.931Z,98.79
2017-12-08T01:52:12.053Z,98.69
2017-12-08T01:52:38.188Z,98.88
2017-12-08T01:53:04.304Z,99.07
2017-12-08T01:53:30.420Z,98.79
2017-12-08T01:53:56.531Z,99.16
2017-12-08T01:54:22.651Z,99.07
2017-12-08T01:54:48.762Z,99.16
2017-12-08T01:55:14.880Z,99.07
2017-12-08T01:55:40.993Z,99.07
2017-12-08T01:56:07.117Z,98.88
2017-12-08T01:56:33.225Z,98.88
2017-12-08T01:56:59.337Z,98.88
2017-12-08T01:57:25.478Z,98.69
2017-12-08T01:57:51.588Z,98.69
2017-12-08T01:58:17.702Z,98.97
2017-12-08T01:58:43.818Z,98.69
2017-12-08T01:59:09.927Z,99.07
2017-12-08T01:59:36.051Z,98.31
2017-12-08T02:00:02.168Z,98.31
2017-12-08T02:00:28.280Z,98.21
2017-12-08T02:00:54.391Z,98.21
2017-12-08T02:01:20.509Z,98.5
2017-12-08T02:01:46.621Z,98.97
2017-12-08T02:02:12.732Z,99.16
2017-12-08T02:02:38.851Z,98.21
2017-12-08T02:03:04.969Z,98.02
2017-12-08T02:03:31.096Z,98.21
2017-12-08T02:03:57.213Z,98.21
2017-12-08T02:04:23.330Z,98.12
2017-12-08T02:04:49.436Z,98.02
2017-12-08T02:05:15.552Z,98.4
2017-12-08T02:05:41.663Z,98.59
2017-12-08T02:06:07.779Z,98.4
2017-12-08T02:06:33.894Z,98.12
2017-12-08T02:07:00.008Z,98.02
2017-12-08T02:07:26.123Z,98.21
2017-12-08T02:07:52.236Z,98.31
2017-12-08T02:08:18.349Z,98.4
2017-12-08T02:08:44.464Z,97.92
2017-12-08T02:09:10.575Z,98.5
2017-12-08T02:09:36.685Z,98.21
2017-12-08T02:10:02.802Z,98.02
2017-12-08T02:10:28.912Z,98.31
2017-12-08T02:10:55.027Z,98.21
2017-12-08T02:11:21.136Z,98.4
2017-12-08T02:11:47.245Z,97.92
2017-12-08T02:12:13.365Z,98.21
2017-12-08T02:12:39.480Z,98.31
2017-12-08T02:13:05.586Z,98.59
2017-12-08T02:13:31.711Z,98.12
2017-12-08T02:13:57.824Z,98.31
2017-12-08T02:14:23.957Z,98.4
2017-12-08T02:14:50.087Z,98.02
2017-12-08T02:15:16.194Z,98.12
2017-12-08T02:15:42.313Z,97.83
2017-12-08T02:16:08.444Z,97.69
2017-12-08T02:16:34.560Z,97.27
2017-12-08T02:17:00.676Z,98.02
2017-12-08T02:17:26.783Z,97.64
2017-12-08T02:17:52.923Z,97.83
2017-12-08T02:18:19.034Z,98.4
2017-12-08T02:18:45.153Z,97.83
2017-12-08T02:19:11.267Z,98.21
2017-12-08T02:19:37.398Z,98.5
2017-12-08T02:20:03.499Z,98.59
2017-12-08T02:20:29.609Z,97.74
2017-12-08T02:20:55.739Z,97.83
2017-12-08T02:21:21.849Z,97.45
2017-12-08T02:21:47.962Z,97.92
2017-12-08T02:22:14.077Z,97.5
2017-12-08T02:22:40.192Z,97.78
2017-12-08T02:23:06.321Z,98.45
2017-12-08T02:23:32.451Z,98.35
2017-12-08T02:23:58.570Z,97.97
2017-12-08T02:24:24.681Z,97.6
2017-12-08T02:24:50.794Z,97.69
2017-12-08T02:25:16.913Z,98.26
2017-12-08T02:25:43.024Z,98.26
2017-12-08T02:26:09.149Z,98.45
2017-12-08T02:26:35.269Z,98.12
2017-12-08T02:27:01.394Z,98.12
2017-12-08T02:27:27.504Z,97.83
2017-12-08T02:27:53.622Z,97.83
2017-12-08T02:28:19.736Z,97.64
2017-12-08T02:28:45.846Z,97.17
2017-12-08T02:29:11.984Z,97.45
2017-12-08T02:29:38.091Z,97.41
2017-12-08T02:30:04.216Z,97.31
2017-12-08T02:30:30.328Z,97.6
2017-12-08T02:30:56.440Z,97.78
2017-12-08T02:31:22.568Z,97.78
2017-12-08T02:31:48.664Z,97.78
2017-12-08T02:32:14.774Z,97.69
2017-12-08T02:32:40.887Z,97.6
2017-12-08T02:33:07.005Z,97.6
2017-12-08T02:33:33.123Z,97.78
2017-12-08T02:33:59.241Z,97.69
2017-12-08T02:34:25.365Z,98.16
2017-12-08T02:34:51.479Z,98.45
2017-12-08T02:35:17.612Z,98.64
2017-12-08T02:35:43.731Z,97.97
2017-12-08T02:36:09.848Z,97.69
2017-12-08T02:36:35.956Z,97.69
2017-12-08T02:37:02.095Z,98.07
2017-12-08T02:37:28.208Z,98.26
2017-12-08T02:37:54.315Z,98.35
2017-12-08T02:38:20.430Z,97.78
2017-12-08T02:38:46.548Z,97.22
2017-12-08T02:39:12.657Z,97.6
2017-12-08T02:39:38.775Z,97.6
2017-12-08T02:40:04.887Z,97.41
2017-12-08T02:40:30.998Z,97.41
2017-12-08T02:40:57.125Z,97.31
2017-12-08T02:41:23.234Z,97.41
2017-12-08T02:41:49.343Z,97.22
2017-12-08T02:42:15.460Z,97.41
2017-12-08T02:42:41.573Z,97.02
2017-12-08T02:43:07.699Z,97.31
2017-12-08T02:43:33.835Z,97.5
2017-12-08T02:43:59.966Z,97.5
2017-12-08T02:44:26.099Z,97.41
2017-12-08T02:44:52.212Z,97.5
2017-12-08T02:45:18.372Z,97.6
2017-12-08T02:45:44.481Z,97.6
2017-12-08T02:46:10.593Z,97.78
2017-12-08T02:46:36.706Z,97.5
2017-12-08T02:47:02.843Z,97.6
2017-12-08T02:47:28.962Z,97.69
2017-12-08T02:47:55.070Z,97.6
2017-12-08T02:48:21.184Z,98.45
2017-12-08T02:48:47.297Z,98.26
2017-12-08T02:49:13.408Z,97.78
2017-12-08T02:49:39.529Z,97.97
2017-12-08T02:50:05.644Z,97.41
2017-12-08T02:50:31.764Z,97.22
2017-12-08T02:50:57.902Z,97.41
2017-12-08T02:51:24.018Z,97.41
2017-12-08T02:51:50.131Z,97.31
2017-12-08T02:52:16.242Z,97.22
2017-12-08T02:52:42.356Z,96.93
2017-12-08T02:53:08.501Z,97.31
2017-12-08T02:53:34.615Z,96.93
2017-12-08T02:54:00.733Z,96.83
2017-12-08T02:54:26.843Z,96.64
2017-12-08T02:54:52.960Z,96.93
2017-12-08T02:55:19.092Z,96.93
2017-12-08T02:55:45.205Z,97.02
2017-12-08T02:56:11.321Z,96.83
2017-12-08T02:56:37.433Z,96.74
2017-12-08T02:57:03.542Z,97.02
2017-12-08T02:57:29.661Z,97.12
2017-12-08T02:57:55.770Z,96.74
2017-12-08T02:58:21.889Z,96.83
2017-12-08T02:58:48.000Z,96.93
2017-12-08T02:59:14.136Z,96.93
2017-12-08T02:59:40.249Z,97.22
2017-12-08T03:00:06.367Z,96.83
2017-12-08T03:00:32.481Z,97.69
2017-12-08T03:00:58.593Z,97.02
2017-12-08T03:01:24.711Z,97.12
2017-12-08T03:01:50.818Z,97.22
2017-12-08T03:02:16.936Z,96.74
2017-12-08T03:02:43.067Z,96.93
2017-12-08T03:03:09.177Z,96.64
2017-12-08T03:03:35.295Z,96.83
2017-12-08T03:04:01.404Z,97.02
2017-12-08T03:04:27.521Z,96.83
2017-12-08T03:04:53.637Z,96.74
2017-12-08T03:05:19.752Z,96.74
2017-12-08T03:05:45.890Z,97.02
2017-12-08T03:06:11.996Z,96.74
2017-12-08T03:06:38.110Z,97.12
2017-12-08T03:07:04.227Z,96.93
2017-12-08T03:07:30.361Z,97.02
2017-12-08T03:07:56.473Z,97.22
2017-12-08T03:08:22.581Z,96.74
2017-12-08T03:08:48.699Z,96.45
2017-12-08T03:09:14.814Z,96.36
2017-12-08T03:09:40.940Z,96.17
2017-12-08T03:10:07.083Z,96.17
2017-12-08T03:10:33.194Z,95.98
2017-12-08T03:10:59.300Z,95.98
2017-12-08T03:11:25.411Z,95.89
2017-12-08T03:11:51.529Z,95.98
2017-12-08T03:12:17.641Z,96.17
2017-12-08T03:12:43.755Z,96.08
2017-12-08T03:13:09.893Z,96.17
2017-12-08T03:13:36.014Z,95.79
2017-12-08T03:14:02.127Z,95.7
2017-12-08T03:14:28.242Z,95.51
2017-12-08T03:14:54.352Z,95.6
2017-12-08T03:15:20.468Z,95.79
2017-12-08T03:15:46.577Z,95.89
2017-12-08T03:16:12.690Z,95.7
2017-12-08T03:16:38.807Z,95.6
2017-12-08T03:17:04.921Z,95.03
2017-12-08T03:17:31.032Z,95.51
2017-12-08T03:17:57.145Z,95.12
2017-12-08T03:18:23.261Z,95.79
2017-12-08T03:18:49.376Z,95.6
2017-12-08T03:19:15.487Z,95.03
2017-12-08T03:19:41.604Z,95.03
2017-12-08T03:20:07.720Z,95.12
2017-12-08T03:20:33.828Z,95.12
2017-12-08T03:20:59.937Z,95.31
2017-12-08T03:21:26.056Z,95.89
2017-12-08T03:21:52.165Z,95.79
2017-12-08T03:22:18.298Z,95.79
2017-12-08T03:22:44.416Z,95.22
2017-12-08T03:23:10.526Z,95.89
2017-12-08T03:23:36.643Z,95.51
2017-12-08T03:24:02.757Z,95.6
2017-12-08T03:24:28.871Z,96.17
2017-12-08T03:24:54.988Z,95.22
2017-12-08T03:25:21.096Z,95.31
2017-12-08T03:25:47.212Z,95.6
2017-12-08T03:26:13.347Z,96.17
2017-12-08T03:26:39.478Z,95.79
2017-12-08T03:27:05.592Z,96.17
2017-12-08T03:27:31.712Z,95.79
2017-12-08T03:27:57.824Z,96.17
2017-12-08T03:28:23.936Z,95.79
2017-12-08T03:28:50.054Z,96.17
2017-12-08T03:29:16.169Z,96.45
2017-12-08T03:29:42.276Z,96.17
2017-12-08T03:30:08.389Z,95.98
2017-12-08T03:30:34.525Z,96.17
2017-12-08T03:31:00.642Z,95.98
2017-12-08T03:31:26.759Z,96.55
2017-12-08T03:31:52.874Z,95.98
2017-12-08T03:32:18.984Z,95.79
2017-12-08T03:32:45.108Z,95.79
2017-12-08T03:33:11.240Z,96.17
2017-12-08T03:33:37.359Z,96.17
2017-12-08T03:34:03.476Z,96.64
2017-12-08T03:34:29.606Z,96.45
2017-12-08T03:34:55.726Z,96.36
2017-12-08T03:35:21.840Z,96.74
2017-12-08T03:35:47.957Z,96.83
2017-12-08T03:36:14.070Z,96.64
2017-12-08T03:36:40.178Z,96.64
2017-12-08T03:37:06.317Z,96.93
2017-12-08T03:37:32.407Z,96.93
2017-12-08T03:37:58.521Z,96.83
2017-12-08T03:38:24.636Z,97.12
2017-12-08T03:38:50.753Z,97.12
2017-12-08T03:39:16.865Z,97.02
2017-12-08T03:39:42.979Z,96.83
2017-12-08T03:40:09.113Z,97.12
2017-12-08T03:40:35.226Z,97.02
2017-12-08T03:41:01.341Z,96.79
2017-12-08T03:41:27.461Z,97.31
2017-12-08T03:41:53.573Z,96.6
2017-12-08T03:42:19.702Z,96.98
2017-12-08T03:42:45.821Z,97.27
2017-12-08T03:43:11.931Z,97.17
2017-12-08T03:43:38.048Z,96.88
2017-12-08T03:44:04.157Z,96.64
2017-12-08T03:44:30.272Z,97.12
2017-12-08T03:44:56.389Z,96.74
2017-12-08T03:45:22.504Z,97.27
2017-12-08T03:45:48.639Z,97.07
2017-12-08T03:46:14.746Z,97.07
2017-12-08T03:46:40.866Z,96.83
2017-12-08T03:47:06.980Z,97.22
2017-12-08T03:47:33.086Z,96.88
2017-12-08T03:47:59.205Z,96.93
2017-12-08T03:48:25.320Z,97.12
2017-12-08T03:48:51.429Z,96.88
2017-12-08T03:49:17.549Z,96.64
2017-12-08T03:49:43.662Z,96.79
2017-12-08T03:50:09.771Z,96.64
2017-12-08T03:50:35.889Z,96.93
2017-12-08T03:51:02.001Z,96.93
2017-12-08T03:51:28.107Z,97.02
2017-12-08T03:51:54.224Z,96.74
2017-12-08T03:52:20.336Z,96.36
2017-12-08T03:52:46.452Z,97.31
2017-12-08T03:53:12.569Z,96.93
2017-12-08T03:53:38.676Z,97.12
2017-12-08T03:54:04.791Z,96.83
2017-12-08T03:54:30.904Z,96.45
2017-12-08T03:54:57.019Z,96.26
2017-12-08T03:55:23.150Z,96.36
2017-12-08T03:55:49.266Z,96.45
2017-12-08T03:56:15.382Z,96.45
2017-12-08T03:56:41.492Z,96.36
2017-12-08T03:57:07.602Z,96.36
2017-12-08T03:57:33.722Z,96.36
2017-12-08T03:57:59.839Z,96.26
2017-12-08T03:58:25.953Z,96.26
2017-12-08T03:58:52.063Z,97.12
2017-12-08T03:59:18.176Z,96.83
2017-12-08T03:59:44.289Z,96.64
2017-12-08T04:00:10.402Z,97.12
2017-12-08T04:00:36.516Z,96.74
2017-12-08T04:01:02.628Z,97.02
2017-12-08T04:01:28.744Z,96.26
2017-12-08T04:01:54.866Z,96.64
2017-12-08T04:02:20.972Z,95.89
2017-12-08T04:02:47.089Z,95.79
2017-12-08T04:03:13.204Z,95.6
2017-12-08T04:03:39.314Z,96.08
2017-12-08T04:04:05.434Z,96.17
2017-12-08T04:04:31.543Z,96.17
2017-12-08T04:04:57.657Z,95.6
2017-12-08T04:05:23.778Z,95.89
2017-12-08T04:05:49.884Z,96.17
2017-12-08T04:06:16.006Z,95.7
2017-12-08T04:06:42.138Z,95.6
2017-12-08T04:07:08.247Z,95.79
2017-12-08T04:07:34.365Z,95.6
2017-12-08T04:08:00.495Z,96.26
2017-12-08T04:08:26.613Z,95.7
2017-12-08T04:08:52.723Z,96.08
2017-12-08T04:09:18.843Z,95.89
2017-12-08T04:09:44.954Z,95.03
2017-12-08T04:10:11.072Z,95.22
2017-12-08T04:10:37.178Z,95.31
2017-12-08T04:11:03.292Z,95.22
2017-12-08T04:11:29.409Z,95.41
2017-12-08T04:11:55.525Z,95.31
2017-12-08T04:12:21.632Z,95.31
2017-12-08T04:12:47.749Z,95.89
2017-12-08T04:13:13.867Z,95.89
2017-12-08T04:13:39.971Z,95.51
2017-12-08T04:14:06.081Z,95.41
2017-12-08T04:14:32.196Z,95.12
2017-12-08T04:14:58.307Z,95.31
2017-12-08T04:15:24.417Z,95.03
2017-12-08T04:15:50.537Z,94.84
2017-12-08T04:16:16.647Z,94.84
2017-12-08T04:16:42.765Z,95.31
2017-12-08T04:17:08.882Z,95.12
2017-12-08T04:17:34.991Z,95.7
2017-12-08T04:18:01.109Z,95.7
2017-12-08T04:18:27.216Z,94.65
2017-12-08T04:18:53.347Z,94.65
2017-12-08T04:19:19.462Z,94.65
2017-12-08T04:19:45.575Z,94.56
2017-12-08T04:20:11.688Z,94.56
2017-12-08T04:20:37.803Z,94.84
2017-12-08T04:21:03.924Z,94.93
2017-12-08T04:21:30.037Z,94.84
2017-12-08T04:21:56.149Z,94.93
2017-12-08T04:22:22.261Z,94.93
2017-12-08T04:22:48.380Z,94.74
2017-12-08T04:23:14.490Z,94.74
2017-12-08T04:23:40.604Z,95.03
2017-12-08T04:24:06.728Z,94.65
2017-12-08T04:24:32.839Z,94.74
2017-12-08T04:24:58.982Z,94.65
2017-12-08T04:25:25.090Z,94.74
2017-12-08T04:25:51.206Z,94.56
2017-12-08T04:26:17.317Z,94.84
2017-12-08T04:26:43.434Z,94.74
2017-12-08T04:27:09.567Z,94.37
2017-12-08T04:27:35.682Z,94.37
2017-12-08T04:28:01.794Z,93.7
2017-12-08T04:28:27.914Z,93.6
2017-12-08T04:28:54.045Z,93.99
2017-12-08T04:29:20.159Z,93.89
2017-12-08T04:29:46.274Z,93.8
2017-12-08T04:30:12.387Z,94.08
2017-12-08T04:30:38.508Z,93.6
2017-12-08T04:31:04.616Z,94.08
2017-12-08T04:31:30.734Z,93.7
2017-12-08T04:31:56.852Z,93.89
2017-12-08T04:32:22.960Z,93.8
2017-12-08T04:32:49.077Z,94.18
2017-12-08T04:33:15.186Z,94.08
2017-12-08T04:33:41.297Z,94.08
2017-12-08T04:34:07.416Z,93.51
2017-12-08T04:34:33.526Z,93.32
2017-12-08T04:34:59.644Z,93.89
2017-12-08T04:35:25.764Z,93.6
2017-12-08T04:35:51.870Z,93.8
2017-12-08T04:36:17.984Z,93.8
2017-12-08T04:36:44.100Z,93.7
2017-12-08T04:37:10.210Z,93.8
2017-12-08T04:37:36.328Z,93.41
2017-12-08T04:38:02.441Z,93.13
2017-12-08T04:38:28.554Z,93.51
2017-12-08T04:38:54.662Z,93.7
2017-12-08T04:39:20.780Z,93.6
2017-12-08T04:39:46.887Z,93.41
2017-12-08T04:40:12.999Z,93.41
2017-12-08T04:40:39.136Z,93.41
2017-12-08T04:41:05.252Z,93.51
2017-12-08T04:41:31.371Z,93.6
2017-12-08T04:41:57.480Z,94.08
2017-12-08T04:42:23.589Z,93.8
2017-12-08T04:42:49.708Z,93.41
2017-12-08T04:43:15.847Z,93.7
2017-12-08T04:43:41.964Z,93.6
2017-12-08T04:44:08.072Z,93.6
2017-12-08T04:44:34.186Z,93.41
2017-12-08T04:45:00.297Z,93.32
2017-12-08T04:45:26.414Z,93.32
2017-12-08T04:45:52.560Z,93.32
2017-12-08T04:46:18.677Z,92.18
2017-12-08T04:46:44.816Z,92.66
2017-12-08T04:47:10.929Z,92.37
2017-12-08T04:47:37.041Z,92.47
2017-12-08T04:48:03.157Z,92.56
2017-12-08T04:48:29.268Z,92.47
2017-12-08T04:48:55.386Z,92.37
2017-12-08T04:49:21.501Z,92.28
2017-12-08T04:49:47.612Z,92.66
2017-12-08T04:50:13.725Z,92.37
2017-12-08T04:50:39.844Z,92.37
2017-12-08T04:51:05.953Z,92.66
2017-12-08T04:51:32.070Z,92.47
2017-12-08T04:51:58.211Z,92.66
2017-12-08T04:52:24.322Z,93.13
2017-12-08T04:52:50.459Z,93.13
2017-12-08T04:53:16.569Z,92.75
2017-12-08T04:53:42.688Z,92.37
2017-12-08T04:54:08.818Z,92.75
2017-12-08T04:54:34.929Z,92.56
2017-12-08T04:55:01.047Z,92.56
2017-12-08T04:55:27.165Z,92.66
2017-12-08T04:55:53.324Z,92.66
2017-12-08T04:56:19.388Z,92.66
2017-12-08T04:56:45.505Z,92.66
2017-12-08T04:57:11.621Z,92.56
2017-12-08T04:57:37.752Z,92.85
2017-12-08T04:58:03.871Z,92.75
2017-12-08T04:58:29.983Z,92.47
2017-12-08T04:58:56.092Z,92.56
2017-12-08T04:59:22.205Z,92.75
2017-12-08T04:59:48.331Z,92.66
2017-12-08T05:00:14.448Z,92.71
2017-12-08T05:00:40.563Z,92.37
2017-12-08T05:01:06.707Z,92.47
2017-12-08T05:01:32.828Z,92.23
2017-12-08T05:01:58.945Z,92.42
2017-12-08T05:02:25.052Z,92.42
2017-12-08T05:02:51.189Z,92.52
2017-12-08T05:03:17.298Z,92.33
2017-12-08T05:03:43.438Z,92.99
2017-12-08T05:04:09.546Z,92.04
2017-12-08T05:04:35.666Z,92.04
2017-12-08T05:05:01.776Z,92.9
2017-12-08T05:05:27.910Z,92.9
2017-12-08T05:05:54.026Z,92.99
2017-12-08T05:06:20.140Z,92.8
2017-12-08T05:06:46.256Z,92.9
2017-12-08T05:07:12.365Z,92.33
2017-12-08T05:07:38.480Z,92.71
2017-12-08T05:08:04.593Z,92.52
2017-12-08T05:08:30.707Z,92.61
2017-12-08T05:08:56.820Z,92.71
2017-12-08T05:09:22.939Z,92.8
2017-12-08T05:09:49.048Z,92.61
2017-12-08T05:10:15.159Z,92.42
2017-12-08T05:10:41.279Z,92.61
2017-12-08T05:11:07.390Z,92.61
2017-12-08T05:11:33.569Z,92.33
2017-12-08T05:11:59.639Z,92.71
2017-12-08T05:12:25.750Z,92.8
2017-12-08T05:12:51.870Z,92.61
2017-12-08T05:13:17.981Z,91.94
2017-12-08T05:13:44.094Z,92.23
2017-12-08T05:14:10.211Z,92.23
2017-12-08T05:14:36.342Z,92.04
2017-12-08T05:15:02.460Z,91.94
2017-12-08T05:15:28.569Z,92.52
2017-12-08T05:15:54.688Z,92.71
2017-12-08T05:16:20.823Z,92.14
2017-12-08T05:16:46.931Z,91.94
2017-12-08T05:17:13.050Z,91.85
2017-12-08T05:17:39.160Z,92.33
2017-12-08T05:18:05.276Z,92.14
2017-12-08T05:18:31.387Z,92.04
2017-12-08T05:18:57.498Z,92.52
2017-12-08T05:19:23.614Z,92.42
2017-12-08T05:19:49.726Z,92.23
2017-12-08T05:20:15.846Z,91.85
2017-12-08T05:20:41.958Z,92.42
2017-12-08T05:21:08.074Z,92.14
2017-12-08T05:21:34.190Z,91.94
2017-12-08T05:22:00.319Z,91.85
2017-12-08T05:22:26.429Z,92.71
2017-12-08T05:22:52.546Z,92.52
2017-12-08T05:23:18.663Z,92.14
2017-12-08T05:23:44.773Z,92.52
2017-12-08T05:24:10.894Z,92.52
2017-12-08T05:24:37.007Z,92.52
2017-12-08T05:25:03.127Z,92.61
2017-12-08T05:25:29.231Z,91.85
2017-12-08T05:25:55.348Z,92.33
2017-12-08T05:26:21.463Z,92.23
2017-12-08T05:26:47.592Z,92.42
2017-12-08T05:27:13.710Z,91.94
2017-12-08T05:27:39.819Z,92.23
2017-12-08T05:28:05.939Z,91.75
2017-12-08T05:28:32.055Z,92.23
2017-12-08T05:28:58.165Z,91.75
2017-12-08T05:29:24.302Z,91.85
2017-12-08T05:29:50.414Z,91.94
2017-12-08T05:30:16.531Z,92.14
2017-12-08T05:30:42.638Z,91.85
2017-12-08T05:31:08.757Z,92.14
2017-12-08T05:31:34.869Z,92.04
2017-12-08T05:32:00.985Z,91.94
2017-12-08T05:32:27.095Z,91.94
2017-12-08T05:32:53.207Z,91.94
2017-12-08T05:33:19.335Z,91.94
2017-12-08T05:33:45.446Z,91.85
2017-12-08T05:34:11.557Z,92.23
2017-12-08T05:34:37.668Z,91.94
2017-12-08T05:35:03.782Z,91.85
2017-12-08T05:35:29.930Z,91.75
2017-12-08T05:35:56.095Z,92.04
2017-12-08T05:36:22.241Z,91.75
2017-12-08T05:36:48.366Z,91.56
2017-12-08T05:37:14.482Z,91.38
2017-12-08T05:37:40.597Z,91.28